Airfield :
LOGIN :

Register | Disclaimer

   EN    FR    IT 

 










Legend :    VFR   Marginal VFR   IFR   Intensive IFR   Very Intensive IFR
Visi :
Ceiling :
>= 8 km
>= 3000ft
5 to 8 km
1000 to 3000 ft
1500m to 5 km
500 to 1000 ft
800 to 1500m
200 to 500 ft
< 800m
< 200 ft
Symbols :   Thunderstorms  Fog  Heavy snow  Heavy precipitations  Wind > 20 kt
SIGMETs :     Misc.  Thunderstorms  Icing  Turbulence  Mountain Waves  Volcanic Ashes







- Airport Elevation : 526 ft
- IATA code : LTN
- Download approach charts


EGGW - London Luton

CURRENT METAR :
  • 191420Z AUTO 22022G33KT 9999 OVC038 21/12 Q1010

EXPIRED METARs :
  • 191350Z AUTO 21025G36KT 9999 SCT038 22/12 Q1009
  • 191320Z AUTO 22024G39KT 9999 BKN039 22/11 Q1010
  • 191250Z AUTO 22023G36KT 180V240 9999 BKN039 22/12 Q1009
  • 191220Z AUTO 22024G38KT 9999 SCT038 22/11 Q1009
  • 191150Z 21022G35KT 9999 SCT034 22/12 Q1010
  • 191120Z 21021G33KT 9999 SCT031 21/13 Q1010

TAF TAF EGGW
Valid from the 19 at 12:00 until the 20 at 12:00 UTC


191105Z 1912/2012 21018G28KT 9999 SCT030
TEMPO 1912/1915 22025G38KT
PROB40
TEMPO 1914/1918 7000 SHRA BKN012
BECMG 1915/1918 25015KT
BECMG 1920/1923 19006KT
PROB40
TEMPO 2001/2009 7000 -RA BKN012
BECMG 2003/2006 20016KT
TEMPO 2007/2012 20019G29KT
ATIS : +44 1582 395 204
No reported NOTAMs for that airfield.
4 SIGMETs reported for the London FIR (EGTT) :
 
Severe mountain waves
EGTT SIGMET 11 VALID 191300/191700 EGRR
EGTT LONDON FIR SEV MTW FCST WI N5311 E00322 - N5143 E00210 - N4947 W00545 - N5139 W00647 - N5220 W00530 - N5500 W00530 - N5500 W00100 - N5311 E00322 FL030/250 STNR NC=
Severe turbulence
EGTT SIGMET 10 VALID 191300/191700 EGRR
EGTT LONDON FIR SEV TURB FCST N OF N4958 AND E OF W00534 SFC/FL060 MOV ENE 40KT WKN=
SIGMET 08 cancelation
EGTT SIGMET 09 VALID 191245/191632 EGRR
EGTT LONDON FIR CNL SIGMET 08 191232/191632=
SIGMET 08  CANCELED :
Severe turbulence
EGTT SIGMET 08 VALID 191232/191632 EGRR
EGTT LONDON FIR SEV TURB FCST N OF N4955 AND E OF W00546 SFC/FL060 MOV ENE 40KT WKN=



MET'MAP, your aeronautical weather chart ! - Copyright ORBIFLY December 2007 - Disclaimer

ORBIFLY MET'MAP TEAM :

Programming & Development : Alexandra Zaïnal
Concept & Development : Baudouin d'Aumeries
Co-Development & Prog : Marc-Olivier Méhu
Technical & hardware support : Manuel Goepfert

Contact : metmap@orbifly.com




SOURCES & CREDITS :

   NOAA